createdAt,value
2018-11-14T00:00:16.631Z,5.08
2018-11-14T00:02:45.202Z,5.37
2018-11-14T00:05:13.703Z,5.90
2018-11-14T00:07:42.301Z,5.42
2018-11-14T00:10:11.229Z,5.85
2018-11-14T00:12:39.734Z,5.47
2018-11-14T00:15:10.554Z,5.60
2018-11-14T00:17:39.154Z,5.37
2018-11-14T00:20:08.567Z,5.70
2018-11-14T00:22:37.135Z,5.67
2018-11-14T00:25:05.926Z,5.75
2018-11-14T00:27:34.505Z,6.08
2018-11-14T00:30:03.340Z,6.70
2018-11-14T00:32:31.919Z,5.65
2018-11-14T00:35:00.429Z,5.60
2018-11-14T00:37:28.975Z,5.60
2018-11-14T00:39:57.512Z,5.10
2018-11-14T00:42:26.114Z,6.03
2018-11-14T00:44:54.665Z,5.37
2018-11-14T00:47:23.207Z,5.90
2018-11-14T00:49:51.694Z,5.60
2018-11-14T00:52:20.196Z,5.45
2018-11-14T00:54:49.825Z,5.47
2018-11-14T00:57:18.357Z,6.00
2018-11-14T00:59:46.828Z,5.58
2018-11-14T01:02:15.348Z,5.50
2018-11-14T01:04:43.868Z,5.17
2018-11-14T01:07:12.767Z,5.42
2018-11-14T01:09:41.350Z,5.72
2018-11-14T01:12:10.239Z,5.90
2018-11-14T01:14:38.466Z,5.72
2018-11-14T01:17:07.006Z,6.00
2018-11-14T01:19:35.522Z,5.40
2018-11-14T01:22:04.055Z,6.30
2018-11-14T01:24:32.586Z,5.92
2018-11-14T01:27:01.210Z,5.90
2018-11-14T01:29:29.728Z,6.28
2018-11-14T01:31:58.261Z,5.78
2018-11-14T01:34:26.744Z,5.67
2018-11-14T01:36:55.319Z,5.87
2018-11-14T01:39:23.860Z,5.92
2018-11-14T01:41:52.357Z,6.15
2018-11-14T01:44:20.834Z,5.87
2018-11-14T01:46:49.390Z,5.87
2018-11-14T01:49:17.954Z,6.10
2018-11-14T01:51:46.499Z,6.22
2018-11-14T01:54:17.926Z,6.45
2018-11-14T01:56:48.276Z,5.92
2018-11-14T01:59:16.795Z,6.67
2018-11-14T02:01:45.322Z,6.75
2018-11-14T02:04:13.795Z,7.08
2018-11-14T02:06:42.326Z,7.03
2018-11-14T02:09:10.859Z,6.92
2018-11-14T02:11:39.371Z,7.08
2018-11-14T02:14:08.314Z,6.43
2018-11-14T02:16:36.856Z,7.40
2018-11-14T02:19:05.504Z,6.62
2018-11-14T02:21:34.087Z,6.28
2018-11-14T02:24:02.606Z,6.95
2018-11-14T02:26:31.111Z,6.58
2018-11-14T02:28:59.646Z,6.62
2018-11-14T02:31:28.178Z,6.28
2018-11-14T02:33:57.032Z,6.37
2018-11-14T02:36:25.606Z,6.30
2018-11-14T02:38:54.169Z,6.30
2018-11-14T02:41:22.783Z,6.78
2018-11-14T02:43:51.295Z,6.80
2018-11-14T02:46:19.819Z,6.85
2018-11-14T02:48:48.371Z,6.28
2018-11-14T02:51:29.700Z,6.12
2018-11-14T02:53:58.268Z,6.42
2018-11-14T02:56:26.755Z,6.58
2018-11-14T02:58:55.299Z,6.10
2018-11-14T03:01:23.869Z,6.92
2018-11-14T03:03:52.428Z,6.35
2018-11-14T03:06:21.041Z,6.72
2018-11-14T03:08:49.513Z,6.90
2018-11-14T03:11:18.075Z,7.15
2018-11-14T03:13:46.561Z,7.20
2018-11-14T03:16:15.054Z,7.15
2018-11-14T03:18:43.555Z,7.22
2018-11-14T03:21:12.086Z,7.10
2018-11-14T03:23:40.569Z,7.53
2018-11-14T03:26:15.739Z,7.67
2018-11-14T03:28:44.256Z,7.05
2018-11-14T03:31:13.629Z,7.05
2018-11-14T03:33:42.451Z,7.60
2018-11-14T03:36:16.379Z,7.78
2018-11-14T03:38:44.964Z,7.07
2018-11-14T03:41:13.588Z,6.83
2018-11-14T03:43:42.133Z,7.50
2018-11-14T03:46:11.717Z,6.90
2018-11-14T03:48:40.321Z,6.97
2018-11-14T03:51:08.925Z,6.92
2018-11-14T03:53:37.498Z,7.03
2018-11-14T03:56:06.555Z,7.30
2018-11-14T03:58:35.242Z,7.47
2018-11-14T04:01:03.721Z,7.20
2018-11-14T04:03:32.254Z,7.20
2018-11-14T04:06:01.985Z,7.47
2018-11-14T04:08:30.544Z,7.65
2018-11-14T04:10:59.119Z,8.00
2018-11-14T04:13:27.702Z,7.85
2018-11-14T04:15:56.225Z,7.67
2018-11-14T04:18:24.751Z,7.92
2018-11-14T04:20:53.312Z,8.58
2018-11-14T04:23:21.794Z,7.90
2018-11-14T04:25:50.407Z,8.83
2018-11-14T04:28:18.963Z,8.55
2018-11-14T04:30:47.572Z,9.00
2018-11-14T04:33:16.155Z,8.33
2018-11-14T04:35:44.648Z,8.77
2018-11-14T04:38:13.205Z,9.20
2018-11-14T04:40:41.835Z,8.80
2018-11-14T04:43:10.340Z,9.48
2018-11-14T04:45:38.924Z,9.28
2018-11-14T04:48:07.565Z,8.75
2018-11-14T04:50:36.094Z,9.00
2018-11-14T04:53:04.789Z,8.93
2018-11-14T04:55:33.282Z,8.20
2018-11-14T04:58:01.826Z,9.18
2018-11-14T05:00:31.284Z,8.67
2018-11-14T05:02:59.832Z,9.33
2018-11-14T05:05:28.337Z,9.23
2018-11-14T05:07:56.870Z,9.73
2018-11-14T05:10:26.704Z,9.08
2018-11-14T05:12:55.287Z,9.55
2018-11-14T05:15:24.918Z,9.50
2018-11-14T05:17:54.296Z,9.68
2018-11-14T05:20:23.295Z,10.08
2018-11-14T05:22:52.199Z,9.83
2018-11-14T05:25:20.775Z,10.13
2018-11-14T05:27:49.321Z,9.55
2018-11-14T05:30:19.231Z,9.85
2018-11-14T05:32:48.678Z,9.33
2018-11-14T05:35:17.866Z,9.78
2018-11-14T05:37:46.781Z,10.03
2018-11-14T05:40:17.530Z,9.68
2018-11-14T05:42:46.867Z,9.38
2018-11-14T05:45:17.277Z,8.98
2018-11-14T05:47:45.917Z,9.25
2018-11-14T05:50:15.965Z,9.65
2018-11-14T05:52:44.457Z,9.80
2018-11-14T05:55:13.750Z,9.40
2018-11-14T05:57:42.719Z,9.13
2018-11-14T06:00:27.423Z,9.43
2018-11-14T06:02:56.266Z,9.45
2018-11-14T06:05:24.845Z,9.35
2018-11-14T06:07:53.493Z,10.35
2018-11-14T06:10:22.207Z,10.18
2018-11-14T06:12:50.856Z,9.23
2018-11-14T06:15:20.358Z,9.50
2018-11-14T06:17:49.859Z,10.30
2018-11-14T06:20:22.783Z,9.55
2018-11-14T06:22:53.985Z,9.33
2018-11-14T06:25:30.691Z,9.83
2018-11-14T06:28:01.204Z,9.48
2018-11-14T06:30:31.935Z,9.93
2018-11-14T06:33:03.361Z,9.83
2018-11-14T06:35:32.624Z,10.78
2018-11-14T06:38:04.402Z,10.25
2018-11-14T06:40:34.023Z,10.78
2018-11-14T06:43:04.537Z,10.58
2018-11-14T06:45:34.842Z,10.93
2018-11-14T06:48:05.708Z,10.98
2018-11-14T06:50:39.320Z,10.45
2018-11-14T06:53:08.831Z,11.50
2018-11-14T06:55:41.001Z,11.33
2018-11-14T06:58:11.070Z,11.00
2018-11-14T07:00:41.281Z,11.43
2018-11-14T07:03:13.307Z,11.18
2018-11-14T07:05:42.526Z,11.12
2018-11-14T07:08:12.433Z,11.55
2018-11-14T07:10:41.019Z,11.53
2018-11-14T07:13:12.074Z,11.35
2018-11-14T07:15:41.736Z,11.00
2018-11-14T07:18:11.253Z,11.43
2018-11-14T07:20:41.329Z,11.55
2018-11-14T07:23:09.879Z,10.95
2018-11-14T07:25:38.413Z,11.50
2018-11-14T07:28:07.130Z,11.18
2018-11-14T07:30:36.333Z,11.05
2018-11-14T07:33:06.430Z,11.10
2018-11-14T07:35:34.974Z,11.30
2018-11-14T07:38:39.656Z,10.98
2018-11-14T07:41:10.151Z,10.30
2018-11-14T07:43:39.236Z,9.93
2018-11-14T07:46:08.246Z,10.48
2018-11-14T07:48:37.368Z,10.55
2018-11-14T07:51:06.454Z,10.32
2018-11-14T07:53:35.143Z,10.30
2018-11-14T07:56:03.746Z,10.45
2018-11-14T07:58:32.534Z,11.07
2018-11-14T08:01:01.413Z,11.38
2018-11-14T08:03:29.946Z,9.85
2018-11-14T08:05:58.919Z,10.70
2018-11-14T08:08:27.495Z,10.78
2018-11-14T08:10:56.102Z,10.27
2018-11-14T08:13:26.021Z,10.10
2018-11-14T08:15:56.732Z,10.13
2018-11-14T08:18:25.635Z,10.45
2018-11-14T08:20:54.381Z,10.20
2018-11-14T08:23:22.943Z,10.60
2018-11-14T08:25:51.494Z,10.65
2018-11-14T08:28:20.087Z,10.53
2018-11-14T08:30:48.711Z,10.40
2018-11-14T08:33:17.332Z,10.05
2018-11-14T08:35:45.994Z,10.20
2018-11-14T08:38:14.639Z,10.33
2018-11-14T08:40:43.286Z,10.23
2018-11-14T08:43:11.908Z,11.28
2018-11-14T08:45:40.542Z,9.80
2018-11-14T08:48:09.701Z,10.32
2018-11-14T08:50:38.583Z,10.60
2018-11-14T08:53:08.119Z,10.23
2018-11-14T08:55:36.710Z,11.15
2018-11-14T08:58:05.447Z,10.60
2018-11-14T09:00:33.992Z,10.38
2018-11-14T09:03:02.619Z,10.58
2018-11-14T09:05:31.225Z,10.33
2018-11-14T09:07:59.794Z,11.08
2018-11-14T09:10:28.681Z,11.38
2018-11-14T09:12:57.237Z,10.68
2018-11-14T09:15:26.483Z,10.70
2018-11-14T09:17:55.082Z,10.83
2018-11-14T09:20:25.151Z,10.08
2018-11-14T09:22:53.726Z,10.85
2018-11-14T09:25:27.692Z,10.28
2018-11-14T09:27:56.586Z,10.80
2018-11-14T09:30:25.965Z,10.90
2018-11-14T09:32:54.867Z,10.28
2018-11-14T09:35:24.431Z,10.60
2018-11-14T09:37:53.974Z,10.07
2018-11-14T09:40:23.928Z,10.28
2018-11-14T09:42:52.699Z,10.45
2018-11-14T09:45:23.682Z,9.88
2018-11-14T09:47:52.403Z,10.00
2018-11-14T09:50:24.329Z,10.05
2018-11-14T09:52:55.228Z,9.70
2018-11-14T09:55:23.844Z,9.83
2018-11-14T09:57:52.451Z,9.50
2018-11-14T10:00:22.366Z,9.13
2018-11-14T10:02:52.660Z,8.80
2018-11-14T10:05:22.682Z,8.88
2018-11-14T10:07:51.312Z,9.00
2018-11-14T10:10:21.137Z,8.87
2018-11-14T10:12:49.755Z,9.18
2018-11-14T10:15:19.561Z,8.90
2018-11-14T10:17:48.586Z,8.65
2018-11-14T10:20:18.834Z,8.35
2018-11-14T10:22:47.474Z,7.78
2018-11-14T10:25:16.721Z,8.10
2018-11-14T10:27:46.008Z,8.33
2018-11-14T10:30:16.773Z,7.90
2018-11-14T10:32:46.593Z,8.25
2018-11-14T10:35:15.273Z,8.10
2018-11-14T10:37:44.005Z,7.80
2018-11-14T10:40:15.910Z,7.85
2018-11-14T10:42:45.512Z,7.53
2018-11-14T10:45:17.440Z,7.12
2018-11-14T10:47:46.202Z,7.03
2018-11-14T10:50:18.093Z,6.87
2018-11-14T10:52:46.684Z,6.37
2018-11-14T10:55:15.960Z,6.58
2018-11-14T10:57:44.623Z,6.75
2018-11-14T11:00:23.573Z,6.00
2018-11-14T11:02:57.503Z,5.67
2018-11-14T11:06:32.254Z,5.45
2018-11-14T11:09:06.240Z,5.70
2018-11-14T11:11:40.595Z,5.00
2018-11-14T11:14:14.401Z,4.75
2018-11-14T11:16:54.158Z,4.87
2018-11-14T11:19:24.080Z,4.80
2018-11-14T11:21:52.803Z,5.20
2018-11-14T11:24:22.503Z,5.00
2018-11-14T11:26:52.009Z,5.53
2018-11-14T11:29:21.002Z,4.75
2018-11-14T11:31:49.708Z,4.70
2018-11-14T11:34:18.276Z,4.58
2018-11-14T11:36:46.909Z,4.70
2018-11-14T11:39:16.753Z,5.12
2018-11-14T11:41:45.821Z,3.98
2018-11-14T11:44:14.477Z,4.33
2018-11-14T11:46:43.751Z,3.92
2018-11-14T11:49:12.594Z,4.30
2018-11-14T11:51:41.235Z,4.00
2018-11-14T11:54:09.868Z,4.05
2018-11-14T11:56:38.632Z,3.80
2018-11-14T11:59:07.965Z,4.30
2018-11-14T12:01:36.629Z,4.03
2018-11-14T12:04:05.599Z,3.90
2018-11-14T12:06:34.171Z,3.90
2018-11-14T12:09:02.809Z,3.55
2018-11-14T12:11:31.338Z,3.75
2018-11-14T12:13:59.987Z,4.10
2018-11-14T12:16:28.627Z,3.55
2018-11-14T12:18:57.214Z,3.80
2018-11-14T12:21:25.794Z,4.00
2018-11-14T12:23:54.321Z,3.67
2018-11-14T12:26:22.845Z,3.70
2018-11-14T12:28:51.412Z,3.70
2018-11-14T12:31:20.086Z,3.95
2018-11-14T12:33:48.641Z,3.47
2018-11-14T12:36:17.242Z,3.92
2018-11-14T12:38:46.000Z,3.72
2018-11-14T12:41:14.855Z,3.62
2018-11-14T12:43:43.441Z,3.60
2018-11-14T12:46:12.122Z,3.90
2018-11-14T12:48:40.660Z,3.63
2018-11-14T12:51:09.225Z,3.90
2018-11-14T12:53:37.847Z,3.70
2018-11-14T12:56:06.441Z,4.15
2018-11-14T12:58:35.090Z,3.60
2018-11-14T13:01:03.702Z,4.30
2018-11-14T13:03:32.232Z,4.25
2018-11-14T13:06:00.838Z,4.05
2018-11-14T13:08:29.407Z,3.95
2018-11-14T13:10:57.910Z,4.08
2018-11-14T13:13:30.695Z,4.20
2018-11-14T13:15:59.224Z,5.15
2018-11-14T13:18:27.838Z,4.20
2018-11-14T13:20:56.367Z,4.40
2018-11-14T13:23:25.004Z,4.45
2018-11-14T13:25:53.691Z,4.03
2018-11-14T13:28:22.477Z,4.00
2018-11-14T13:30:51.101Z,4.72
2018-11-14T13:33:19.735Z,4.47
2018-11-14T13:35:48.363Z,4.67
2018-11-14T13:38:16.895Z,4.67
2018-11-14T13:40:45.484Z,4.50
2018-11-14T13:43:14.143Z,4.70
2018-11-14T13:45:44.477Z,4.50
2018-11-14T13:48:13.180Z,4.12
2018-11-14T13:50:41.886Z,4.20
2018-11-14T13:53:10.401Z,4.30
2018-11-14T13:55:39.033Z,4.10
2018-11-14T13:58:07.598Z,4.20
2018-11-14T14:00:36.240Z,4.25
2018-11-14T14:03:04.901Z,4.22
2018-11-14T14:05:35.058Z,4.37
2018-11-14T14:08:03.672Z,4.37
2018-11-14T14:10:32.272Z,4.60
2018-11-14T14:13:00.969Z,4.00
2018-11-14T14:15:31.591Z,4.45
2018-11-14T14:18:00.390Z,4.50
2018-11-14T14:20:29.108Z,4.85
2018-11-14T14:22:57.730Z,4.62
2018-11-14T14:25:26.340Z,4.37
2018-11-14T14:27:54.929Z,5.00
2018-11-14T14:30:24.070Z,4.80
2018-11-14T14:32:52.713Z,4.75
2018-11-14T14:35:22.459Z,5.05
2018-11-14T14:37:51.383Z,4.85
2018-11-14T14:40:21.091Z,5.17
2018-11-14T14:42:49.736Z,4.72
2018-11-14T14:45:19.935Z,5.10
2018-11-14T14:47:48.611Z,4.87
2018-11-14T14:50:18.213Z,4.78
2018-11-14T14:52:47.255Z,5.17
2018-11-14T14:55:19.274Z,5.55
2018-11-14T14:57:48.241Z,5.87
2018-11-14T15:00:19.933Z,6.40
2018-11-14T15:02:48.606Z,6.45
2018-11-14T15:05:17.242Z,7.17
2018-11-14T15:07:45.802Z,7.00
2018-11-14T15:10:15.949Z,6.50
2018-11-14T15:12:44.692Z,7.08
2018-11-14T15:15:13.961Z,7.42
2018-11-14T15:17:42.575Z,7.55
2018-11-14T15:20:13.670Z,7.55
2018-11-14T15:22:42.459Z,7.33
2018-11-14T15:25:12.695Z,7.95
2018-11-14T15:27:42.018Z,8.50
2018-11-14T15:30:13.923Z,8.05
2018-11-14T15:32:42.505Z,7.90
2018-11-14T15:35:11.988Z,8.50
2018-11-14T15:37:40.620Z,9.10
2018-11-14T15:40:11.275Z,8.90
2018-11-14T15:42:39.978Z,8.60
2018-11-14T15:45:12.259Z,8.98
2018-11-14T15:47:40.891Z,9.00
2018-11-14T15:50:12.929Z,9.18
2018-11-14T15:52:42.281Z,8.75
2018-11-14T15:55:12.154Z,8.80
2018-11-14T15:57:41.716Z,9.18
2018-11-14T16:00:14.675Z,9.48
2018-11-14T16:02:43.240Z,9.38
2018-11-14T16:05:13.782Z,9.65
2018-11-14T16:07:43.479Z,9.20
2018-11-14T16:10:13.527Z,9.45
2018-11-14T16:12:42.555Z,9.80
2018-11-14T16:15:12.890Z,10.35
2018-11-14T16:17:41.644Z,10.08
2018-11-14T16:20:13.979Z,9.58
2018-11-14T16:22:45.792Z,10.28
2018-11-14T16:25:16.676Z,9.50
2018-11-14T16:27:46.217Z,9.88
2018-11-14T16:33:01.320Z,10.53
2018-11-14T16:35:29.908Z,11.20
2018-11-14T16:37:58.426Z,10.70
2018-11-14T16:40:29.374Z,11.12
2018-11-14T16:42:58.955Z,10.58
2018-11-14T16:45:28.547Z,10.58
2018-11-14T16:47:57.074Z,11.00
2018-11-14T16:50:25.688Z,10.80
2018-11-14T16:52:54.467Z,11.25
2018-11-14T16:55:23.504Z,11.35
2018-11-14T16:57:52.922Z,11.12
2018-11-14T17:00:26.607Z,12.50
2018-11-14T17:02:55.146Z,12.53
2018-11-14T17:05:24.657Z,13.30
2018-11-14T17:07:53.294Z,12.53
2018-11-14T17:10:22.304Z,13.03
2018-11-14T17:12:55.290Z,12.55
2018-11-14T17:15:24.836Z,12.75
2018-11-14T17:17:53.386Z,12.80
2018-11-14T17:20:22.515Z,12.73
2018-11-14T17:22:52.240Z,12.10
2018-11-14T17:25:21.798Z,12.65
2018-11-14T17:27:50.547Z,12.30
2018-11-14T17:30:23.297Z,12.97
2018-11-14T17:32:52.301Z,12.13
2018-11-14T17:35:20.893Z,12.63
2018-11-14T17:37:49.509Z,12.23
2018-11-14T17:40:23.365Z,12.75
2018-11-14T17:42:52.556Z,12.27
2018-11-14T17:45:23.351Z,12.53
2018-11-14T17:47:53.243Z,11.93
2018-11-14T17:50:26.378Z,11.83
2018-11-14T17:52:55.765Z,11.85
2018-11-14T17:55:24.854Z,11.45
2018-11-14T17:57:53.310Z,12.75
2018-11-14T18:00:24.117Z,12.23
2018-11-14T18:02:52.714Z,12.33
2018-11-14T18:05:22.801Z,11.83
2018-11-14T18:07:52.018Z,12.60
2018-11-14T18:10:22.825Z,12.03
2018-11-14T18:12:52.255Z,11.85
2018-11-14T18:15:20.818Z,12.80
2018-11-14T18:17:50.390Z,12.60
2018-11-14T18:20:20.294Z,12.13
2018-11-14T18:22:49.442Z,12.45
2018-11-14T18:25:18.009Z,13.57
2018-11-14T18:27:46.570Z,12.82
2018-11-14T18:30:19.293Z,12.70
2018-11-14T18:32:47.835Z,12.85
2018-11-14T18:35:17.303Z,13.58
2018-11-14T18:37:46.328Z,13.48
2018-11-14T18:40:16.302Z,14.00
2018-11-14T18:42:44.887Z,13.68
2018-11-14T18:45:17.674Z,13.93
2018-11-14T18:47:46.921Z,13.43
2018-11-14T18:50:16.216Z,12.78
2018-11-14T18:52:47.550Z,13.18
2018-11-14T18:55:17.489Z,12.90
2018-11-14T18:57:46.545Z,12.47
2018-11-14T19:00:19.202Z,13.40
2018-11-14T19:02:48.827Z,12.63
2018-11-14T19:05:18.058Z,13.60
2018-11-14T19:07:46.598Z,14.05
2018-11-14T19:10:16.818Z,14.43
2018-11-14T19:12:46.021Z,14.78
2018-11-14T19:15:16.658Z,14.70
2018-11-14T19:17:45.275Z,14.98
2018-11-14T19:20:15.046Z,14.53
2018-11-14T19:22:44.047Z,14.53
2018-11-14T19:25:14.929Z,14.83
2018-11-14T19:27:44.591Z,15.08
2018-11-14T19:30:16.161Z,14.98
2018-11-14T19:32:45.966Z,15.60
2018-11-14T19:35:14.865Z,16.57
2018-11-14T19:37:44.501Z,16.80
2018-11-14T19:40:15.313Z,16.30
2018-11-14T19:42:44.507Z,15.63
2018-11-14T19:45:14.977Z,15.70
2018-11-14T19:47:43.975Z,16.70
2018-11-14T19:50:13.864Z,16.25
2018-11-14T19:52:42.630Z,16.90
2018-11-14T19:55:12.615Z,16.37
2018-11-14T19:57:45.753Z,16.10
2018-11-14T20:00:17.605Z,15.60
2018-11-14T20:02:46.178Z,15.85
2018-11-14T20:05:15.619Z,16.07
2018-11-14T20:07:44.209Z,15.63
2018-11-14T20:10:14.588Z,14.80
2018-11-14T20:12:43.199Z,13.83
2018-11-14T20:15:12.878Z,13.22
2018-11-14T20:17:42.693Z,13.25
2018-11-14T20:20:13.159Z,13.75
2018-11-14T20:22:42.193Z,13.03
2018-11-14T20:25:10.772Z,13.88
2018-11-14T20:27:39.757Z,14.65
2018-11-14T20:30:13.429Z,15.05
2018-11-14T20:32:42.125Z,14.83
2018-11-14T20:35:12.006Z,15.38
2018-11-14T20:37:40.741Z,15.58
2018-11-14T20:40:11.431Z,14.55
2018-11-14T20:42:40.211Z,15.23
2018-11-14T20:45:12.741Z,15.40
2018-11-14T20:47:42.116Z,14.80
2018-11-14T20:50:15.877Z,14.25
2018-11-14T20:52:45.231Z,15.13
2018-11-14T20:55:14.658Z,14.80
2018-11-14T20:57:44.042Z,14.98
2018-11-14T21:00:21.120Z,15.70
2018-11-14T21:02:50.175Z,14.50
2018-11-14T21:05:18.894Z,16.35
2018-11-14T21:07:47.460Z,15.85
2018-11-14T21:10:17.448Z,15.30
2018-11-14T21:12:46.311Z,15.67
2018-11-14T21:15:18.060Z,14.73
2018-11-14T21:17:47.371Z,15.18
2018-11-14T21:20:15.997Z,14.98
2018-11-14T21:22:44.566Z,15.25
2018-11-14T21:25:14.464Z,16.07
2018-11-14T21:27:43.912Z,16.05
2018-11-14T21:30:14.065Z,16.10
2018-11-14T21:32:42.829Z,15.38
2018-11-14T21:35:16.634Z,15.95
2018-11-14T21:37:46.214Z,16.23
2018-11-14T21:40:14.829Z,16.48
2018-11-14T21:42:43.597Z,15.63
2018-11-14T21:45:14.573Z,16.12
2018-11-14T21:47:48.507Z,15.32
2018-11-14T21:50:17.913Z,15.32
2018-11-14T21:52:46.954Z,15.00
2018-11-14T21:55:15.504Z,15.03
2018-11-14T21:57:44.102Z,15.30
2018-11-14T22:00:15.748Z,15.98
2018-11-14T22:02:45.628Z,15.90
2018-11-14T22:05:14.121Z,14.93
2018-11-14T22:07:42.699Z,15.30
2018-11-14T22:10:15.466Z,15.18
2018-11-14T22:12:44.639Z,13.83
2018-11-14T22:15:14.056Z,14.83
2018-11-14T22:17:42.633Z,14.53
2018-11-14T22:20:13.059Z,14.53
2018-11-14T22:22:42.519Z,15.13
2018-11-14T22:25:12.212Z,14.43
2018-11-14T22:27:41.008Z,14.90
2018-11-14T22:30:16.972Z,14.50
2018-11-14T22:32:45.595Z,14.75
2018-11-14T22:35:15.492Z,14.65
2018-11-14T22:37:44.196Z,15.00
2018-11-14T22:40:15.459Z,14.53
2018-11-14T22:42:44.417Z,14.50
2018-11-14T22:45:15.101Z,14.10
2018-11-14T22:47:44.118Z,14.40
2018-11-14T22:50:14.068Z,15.15
2018-11-14T22:52:43.235Z,13.58
2018-11-14T22:55:12.978Z,14.53
2018-11-14T22:57:42.273Z,14.15
2018-11-14T23:00:19.105Z,14.78
2018-11-14T23:02:49.171Z,14.30
2018-11-14T23:05:17.786Z,14.95
2018-11-14T23:07:47.258Z,14.30
2018-11-14T23:10:15.823Z,14.05
2018-11-14T23:12:44.624Z,14.70
2018-11-14T23:15:13.139Z,14.50
2018-11-14T23:17:41.685Z,14.58
2018-11-14T23:20:12.425Z,13.53
2018-11-14T23:22:41.750Z,14.43
2018-11-14T23:25:10.934Z,14.23
2018-11-14T23:27:40.899Z,14.18
2018-11-14T23:30:10.554Z,13.60
2018-11-14T23:32:39.363Z,14.13
2018-11-14T23:35:13.309Z,14.03
2018-11-14T23:37:41.934Z,13.38
2018-11-14T23:40:10.796Z,13.57
2018-11-14T23:42:39.358Z,13.00
2018-11-14T23:45:10.058Z,13.15
2018-11-14T23:47:38.585Z,12.40
2018-11-14T23:50:10.677Z,11.80
2018-11-14T23:52:39.255Z,12.58
2018-11-14T23:55:08.342Z,12.15
2018-11-14T23:57:36.900Z,11.63
